Pickford, MI (49774)

9:50 PM EST on February 09, 2016 (GMT -0500)
Charlotte Beach | | Change Station
CLOSE
Current Station
Personal Weather Station
Location: Barbeau, MI
Elevation: 571 ft
Nearby Weather Stations

Elev 571 ft 46.31 °N, 84.22 °W | Updated 14 minutes ago

Snow
Snow
13.6 °F
Feels Like 0 °F
N
11.0
Wind Variable Wind from NE
Gusts 15.0 mph

Today
High -- | Low -- °F
--% Chance of Precip.
Yesterday
High -- | Low -- °F
Precip. -- in
Pressure 29.71 in
Visibility 9.0 miles
Clouds Few 3800 ft
Overcast 8500 ft
Windchill 0 °F
Dew Point 9 °F
Humidity 80%
Rainfall 0.00 in
Snow Depth Not available.
7:49 AM 5:53 PM
Waxing Crescent, 3% visible
METAR KCIU 100235Z AUTO 36009KT 9SM FEW038 OVC085 M11/M12 A2971 RMK AO1
Pressure 29.71 in
Visibility 9.0 miles
Clouds Few 3800 ft
Overcast 8500 ft
Windchill 0 °F
Dew Point 9 °F
Humidity 80%
Rainfall 0.00 in
Snow Depth Not available.
7:49 AM 5:53 PM
Waxing Crescent, 3% visible
METAR KCIU 100235Z AUTO 36009KT 9SM FEW038 OVC085 M11/M12 A2971 RMK AO1

10-Day Weather Forecast

Almanac

Astronomy

Feb. 09, 2016 Rise Set
Actual Time
Civil Twilight
Nautical Twilight
Astronomical Twilight
Moon
Length of Visible Light
Length of Day
Tomorrow will be .
, % of the Moon is Illuminated

Today's Extremes

State Highs State Lows

Community

WunderPhotos

Upload Photos

1,891,786 photos uploaded!

WunderBlog® & News

Nearby

Air Quality

  Air Quality AQ Index Pollutant
Not available.

Snow Depth

Station Depth Elevation

Earthquake Activity

City Distance Mag. Time & Date
Minimum magnitude displayed is 2.5.

Coastal Water Temperatures

Place Temperature

Stations

Nearby Weather Stations

Station Location Temp. Windchill Dew Point Humidity Wind Precip. Elev Updated Type
                   

Watches & Warnings

There are currently no watches in effect.